createdAt,value
2018-05-15T00:02:18.771Z,88.10
2018-05-15T00:04:46.340Z,88.60
2018-05-15T00:07:13.873Z,89.10
2018-05-15T00:09:42.218Z,90.10
2018-05-15T00:12:09.753Z,90.10
2018-05-15T00:14:37.292Z,90.30
2018-05-15T00:17:05.641Z,90.70
2018-05-15T00:19:33.181Z,90.70
2018-05-15T00:22:00.722Z,90.90
2018-05-15T00:24:29.080Z,91.40
2018-05-15T00:26:56.613Z,91.40
2018-05-15T00:29:24.195Z,91.60
2018-05-15T00:31:51.961Z,91.60
2018-05-15T00:34:19.505Z,91.90
2018-05-15T00:36:47.833Z,92.20
2018-05-15T00:39:15.405Z,92.20
2018-05-15T00:41:42.950Z,92.40
2018-05-15T00:44:10.561Z,92.50
2018-05-15T00:46:38.838Z,92.70
2018-05-15T00:49:06.385Z,92.70
2018-05-15T00:51:33.912Z,92.80
2018-05-15T00:54:01.495Z,93.00
2018-05-15T00:56:29.029Z,92.90
2018-05-15T00:58:56.565Z,93.10
2018-05-15T01:01:24.144Z,93.20
2018-05-15T01:03:51.712Z,93.30
2018-05-15T01:06:19.248Z,93.40
2018-05-15T01:08:46.821Z,93.40
2018-05-15T01:11:15.286Z,93.50
2018-05-15T01:13:42.817Z,93.60
2018-05-15T01:16:10.405Z,93.70
2018-05-15T01:18:37.945Z,93.70
2018-05-15T01:21:06.255Z,94.00
2018-05-15T01:23:33.860Z,94.00
2018-05-15T01:26:01.402Z,94.10
2018-05-15T01:28:28.942Z,94.20
2018-05-15T01:30:57.294Z,94.50
2018-05-15T01:33:24.837Z,94.40
2018-05-15T01:35:52.384Z,94.60
2018-05-15T01:38:20.727Z,94.80
2018-05-15T01:40:48.258Z,94.80
2018-05-15T01:43:15.793Z,94.90
2018-05-15T01:45:43.366Z,94.80
2018-05-15T01:48:10.897Z,95.00
2018-05-15T01:50:38.428Z,95.20
2018-05-15T01:53:06.777Z,95.50
2018-05-15T01:55:34.320Z,95.50
2018-05-15T01:58:01.880Z,95.60
2018-05-15T02:00:29.469Z,95.70
2018-05-15T02:02:57.012Z,96.00
2018-05-15T02:05:24.557Z,96.10
2018-05-15T02:07:52.133Z,96.20
2018-05-15T02:10:20.442Z,96.40
2018-05-15T02:12:47.981Z,96.40
2018-05-15T02:15:16.342Z,96.80
2018-05-15T02:17:43.872Z,96.80
2018-05-15T02:20:11.416Z,97.00
2018-05-15T02:22:39.765Z,97.20
2018-05-15T02:25:07.300Z,97.20
2018-05-15T02:27:35.604Z,97.40
2018-05-15T02:30:03.191Z,97.40
2018-05-15T02:32:30.722Z,97.60
2018-05-15T02:34:59.044Z,97.80
2018-05-15T02:37:26.628Z,97.70
2018-05-15T02:39:54.169Z,98.00
2018-05-15T02:42:21.714Z,98.10
2018-05-15T02:44:49.304Z,98.30
2018-05-15T02:47:17.606Z,98.70
2018-05-15T02:49:46.484Z,98.90
2018-05-15T02:52:15.744Z,99.10
2018-05-15T02:54:43.281Z,99.10
2018-05-15T02:57:10.821Z,99.30
2018-05-15T02:59:38.408Z,99.70
2018-05-15T03:02:06.705Z,99.80
2018-05-15T03:04:34.996Z,99.90
2018-05-15T03:07:02.611Z,99.80
2018-05-15T03:09:30.137Z,99.90
2018-05-15T03:11:57.675Z,99.90
2018-05-15T03:14:25.256Z,99.90
2018-05-15T03:16:52.803Z,99.90
2018-05-15T03:19:20.329Z,99.90
2018-05-15T03:21:47.920Z,99.90
2018-05-15T03:24:16.083Z,99.90
2018-05-15T03:26:43.649Z,99.90
2018-05-15T03:29:11.248Z,99.90
2018-05-15T03:31:38.779Z,99.90
2018-05-15T03:34:07.077Z,99.90
2018-05-15T03:36:35.417Z,99.90
2018-05-15T03:39:02.949Z,99.90
2018-05-15T03:41:30.511Z,99.90
2018-05-15T03:43:58.100Z,99.90
2018-05-15T03:46:25.644Z,99.90
2018-05-15T03:48:53.940Z,99.90
2018-05-15T03:51:22.284Z,99.90
2018-05-15T03:53:49.820Z,99.90
2018-05-15T03:56:17.363Z,99.70
2018-05-15T03:58:46.629Z,99.70
2018-05-15T04:04:29.884Z,99.50
2018-05-15T04:07:09.264Z,99.10
2018-05-15T04:09:36.861Z,97.80
2018-05-15T04:12:04.404Z,96.60
2018-05-15T04:14:31.940Z,95.00
2018-05-15T04:16:59.515Z,94.00
2018-05-15T04:19:27.043Z,93.30
2018-05-15T04:21:54.577Z,92.50
2018-05-15T04:24:22.160Z,92.00
2018-05-15T04:26:49.688Z,91.40
2018-05-15T04:29:17.230Z,91.00
2018-05-15T04:31:44.808Z,90.30
2018-05-15T04:34:13.113Z,90.00
2018-05-15T04:36:40.648Z,90.00
2018-05-15T04:39:08.229Z,89.20
2018-05-15T04:41:35.766Z,87.80
2018-05-15T04:44:03.371Z,86.20
2018-05-15T04:46:30.912Z,84.10
2018-05-15T04:48:58.449Z,83.00
2018-05-15T04:51:25.997Z,81.90
2018-05-15T04:53:54.367Z,79.20
2018-05-15T04:56:21.911Z,79.20
2018-05-15T04:58:49.475Z,78.10
2018-05-15T05:01:17.147Z,77.70
2018-05-15T05:03:44.686Z,76.00
2018-05-15T05:06:12.985Z,73.10
2018-05-15T05:08:40.573Z,73.00
2018-05-15T05:11:08.104Z,71.80
2018-05-15T05:13:36.405Z,69.50
2018-05-15T05:16:04.005Z,69.50
2018-05-15T05:18:31.539Z,67.80
2018-05-15T05:20:59.926Z,64.60
2018-05-15T05:23:27.444Z,64.60
2018-05-15T05:25:55.017Z,64.10
2018-05-15T05:28:22.548Z,63.70
2018-05-15T05:30:50.907Z,63.10
2018-05-15T05:33:18.661Z,63.10
2018-05-15T05:35:46.473Z,61.50
2018-05-15T05:38:14.061Z,61.60
2018-05-15T05:40:42.361Z,60.30
2018-05-15T05:43:09.896Z,60.20
2018-05-15T05:45:37.480Z,58.10
2018-05-15T05:48:05.824Z,57.80
2018-05-15T05:50:33.363Z,57.70
2018-05-15T05:53:00.942Z,58.20
2018-05-15T05:55:28.483Z,56.80
2018-05-15T05:57:56.794Z,55.10
2018-05-15T06:00:24.385Z,55.10
2018-05-15T06:02:51.925Z,53.70
2018-05-15T06:05:19.464Z,52.80
2018-05-15T06:07:47.109Z,52.10
2018-05-15T06:10:14.650Z,51.60
2018-05-15T06:12:42.195Z,50.30
2018-05-15T06:15:09.783Z,50.50
2018-05-15T06:17:38.082Z,48.60
2018-05-15T06:20:05.625Z,48.50
2018-05-15T06:22:33.200Z,47.80
2018-05-15T06:25:00.734Z,48.20
2018-05-15T06:27:28.339Z,47.50
2018-05-15T06:29:56.698Z,47.40
2018-05-15T06:32:24.257Z,47.40
2018-05-15T06:34:51.819Z,47.10
2018-05-15T06:37:19.409Z,47.10
2018-05-15T06:39:46.936Z,47.40
2018-05-15T06:42:15.238Z,46.40
2018-05-15T06:44:42.903Z,46.30
2018-05-15T06:47:10.376Z,46.50
2018-05-15T06:49:37.906Z,45.30
2018-05-15T06:52:05.497Z,44.60
2018-05-15T06:54:33.814Z,46.80
2018-05-15T06:57:01.357Z,46.10
2018-05-15T06:59:29.700Z,46.50
2018-05-15T07:01:57.233Z,46.40
2018-05-15T07:04:25.539Z,45.00
2018-05-15T07:06:53.220Z,45.00
2018-05-15T07:09:20.760Z,44.80
2018-05-15T07:11:49.081Z,45.20
2018-05-15T07:14:16.969Z,45.10
2018-05-15T07:16:44.504Z,46.60
2018-05-15T07:19:12.037Z,46.70
2018-05-15T07:21:39.646Z,47.40
2018-05-15T07:24:07.932Z,44.70
2018-05-15T07:26:36.345Z,44.20
2018-05-15T07:29:03.926Z,44.10
2018-05-15T07:31:31.608Z,46.00
2018-05-15T07:33:59.134Z,44.80
2018-05-15T07:36:27.480Z,46.20
2018-05-15T07:38:55.020Z,46.20
2018-05-15T07:41:22.549Z,47.30
2018-05-15T07:43:50.144Z,47.80
2018-05-15T07:46:18.474Z,45.30
2018-05-15T07:48:46.008Z,45.30
2018-05-15T07:51:14.356Z,45.20
2018-05-15T07:53:41.954Z,45.20
2018-05-15T07:56:09.460Z,43.90
2018-05-15T07:58:37.025Z,43.40
2018-05-15T08:01:04.560Z,45.80
2018-05-15T08:03:32.176Z,46.30
2018-05-15T08:05:59.845Z,46.30
2018-05-15T08:08:27.384Z,46.50
2018-05-15T08:10:55.684Z,41.40
2018-05-15T08:13:24.018Z,43.10
2018-05-15T08:15:51.541Z,43.20
2018-05-15T08:18:19.857Z,43.10
2018-05-15T08:20:47.537Z,43.10
2018-05-15T08:23:15.126Z,43.00
2018-05-15T08:25:42.667Z,44.40
2018-05-15T08:28:10.240Z,45.40
2018-05-15T08:30:37.773Z,45.50
2018-05-15T08:33:05.308Z,42.70
2018-05-15T08:35:32.978Z,43.90
2018-05-15T08:38:00.513Z,44.60
2018-05-15T08:40:28.056Z,42.60
2018-05-15T08:42:55.629Z,42.40
2018-05-15T08:45:23.313Z,43.50
2018-05-15T08:47:50.915Z,43.70
2018-05-15T08:50:18.496Z,40.30
2018-05-15T08:52:46.017Z,39.60
2018-05-15T08:55:13.547Z,40.00
2018-05-15T08:57:41.121Z,38.20
2018-05-15T09:00:08.653Z,36.40
2018-05-15T09:02:36.956Z,39.20
2018-05-15T09:05:04.537Z,39.10
2018-05-15T09:07:32.077Z,38.80
2018-05-15T09:10:00.489Z,41.40
2018-05-15T09:12:28.061Z,41.30
2018-05-15T09:14:55.589Z,40.40
2018-05-15T09:17:23.126Z,41.10
2018-05-15T09:19:50.701Z,38.30
2018-05-15T09:22:18.228Z,39.50
2018-05-15T09:24:46.527Z,39.50
2018-05-15T09:27:14.113Z,39.40
2018-05-15T09:29:41.657Z,39.50
2018-05-15T09:32:09.962Z,39.20
2018-05-15T09:34:37.644Z,39.10
2018-05-15T09:37:05.212Z,36.50
2018-05-15T09:39:32.748Z,37.30
2018-05-15T09:42:01.100Z,38.80
2018-05-15T09:44:28.743Z,38.70
2018-05-15T09:46:56.338Z,39.90
2018-05-15T09:49:24.631Z,40.00
2018-05-15T09:51:52.157Z,39.30
2018-05-15T09:54:20.474Z,41.50
2018-05-15T09:56:48.137Z,40.80
2018-05-15T09:59:15.665Z,38.20
2018-05-15T10:01:43.204Z,37.50
2018-05-15T10:04:10.774Z,38.40
2018-05-15T10:06:38.316Z,38.60
2018-05-15T10:09:05.849Z,38.40
2018-05-15T10:11:33.597Z,38.90
2018-05-15T10:14:01.160Z,37.10
2018-05-15T10:16:28.711Z,37.60
2018-05-15T10:18:56.312Z,38.90
2018-05-15T10:21:23.882Z,41.30
2018-05-15T10:23:51.432Z,38.30
2018-05-15T10:26:19.162Z,39.40
2018-05-15T10:28:46.676Z,38.90
2018-05-15T10:31:14.229Z,40.50
2018-05-15T10:33:41.832Z,43.20
2018-05-15T10:36:09.362Z,45.00
2018-05-15T10:38:37.657Z,43.30
2018-05-15T10:41:05.996Z,43.50
2018-05-15T10:43:33.559Z,43.50
2018-05-15T10:46:01.094Z,42.90
2018-05-15T10:48:28.693Z,42.40
2018-05-15T10:50:56.223Z,42.40
2018-05-15T10:53:24.526Z,42.20
2018-05-15T10:55:52.098Z,42.20
2018-05-15T10:58:19.631Z,40.80
2018-05-15T11:00:47.171Z,41.40
2018-05-15T11:03:14.765Z,41.90
2018-05-15T11:05:42.329Z,40.60
2018-05-15T11:08:10.037Z,41.70
2018-05-15T11:10:37.660Z,43.30
2018-05-15T11:13:05.219Z,44.70
2018-05-15T11:15:32.793Z,43.20
2018-05-15T11:18:01.261Z,42.60
2018-05-15T11:23:47.236Z,40.70
2018-05-15T11:26:14.784Z,40.40
2018-05-15T11:28:42.333Z,39.20
2018-05-15T11:31:09.946Z,38.70
2018-05-15T11:33:37.485Z,39.80
2018-05-15T11:36:05.095Z,40.70
2018-05-15T11:38:33.449Z,40.60
2018-05-15T11:41:00.972Z,40.60
2018-05-15T11:43:28.602Z,41.10
2018-05-15T11:45:56.196Z,40.80
2018-05-15T11:48:24.394Z,41.10
2018-05-15T11:50:52.035Z,42.20
2018-05-15T11:53:19.497Z,41.90
2018-05-15T11:55:46.716Z,42.30
2018-05-15T11:58:14.465Z,41.30
2018-05-15T12:00:42.047Z,40.10
2018-05-15T12:03:09.572Z,41.20
2018-05-15T12:05:37.109Z,41.50
2018-05-15T12:08:04.747Z,41.40
2018-05-15T12:10:33.057Z,41.40
2018-05-15T12:13:00.553Z,41.40
2018-05-15T12:15:28.884Z,41.80
2018-05-15T12:17:56.411Z,41.70
2018-05-15T12:20:24.028Z,40.00
2018-05-15T12:22:51.540Z,40.20
2018-05-15T12:25:19.269Z,39.70
2018-05-15T12:27:46.792Z,40.50
2018-05-15T12:30:14.361Z,41.30
2018-05-15T12:32:43.406Z,39.80
2018-05-15T12:35:10.943Z,39.80
2018-05-15T12:37:38.517Z,42.90
2018-05-15T12:40:06.823Z,41.50
2018-05-15T12:42:35.126Z,40.50
2018-05-15T12:45:02.716Z,40.40
2018-05-15T12:47:30.248Z,39.10
2018-05-15T12:49:58.545Z,41.10
2018-05-15T12:52:26.235Z,41.10
2018-05-15T12:54:53.785Z,41.50
2018-05-15T12:57:22.077Z,41.10
2018-05-15T12:59:49.674Z,41.10
2018-05-15T13:02:17.204Z,41.80
2018-05-15T13:04:45.515Z,41.20
2018-05-15T13:07:13.097Z,41.10
2018-05-15T13:09:40.633Z,39.20
2018-05-15T13:12:08.165Z,39.20
2018-05-15T13:14:35.741Z,39.00
2018-05-15T13:17:03.274Z,37.50
2018-05-15T13:19:30.816Z,38.70
2018-05-15T13:21:58.385Z,38.80
2018-05-15T13:24:26.070Z,38.80
2018-05-15T13:26:53.549Z,40.30
2018-05-15T13:29:21.885Z,39.50
2018-05-15T13:31:50.536Z,40.20
2018-05-15T13:34:19.753Z,40.60
2018-05-15T13:36:47.337Z,40.60
2018-05-15T13:39:14.917Z,41.60
2018-05-15T13:41:42.444Z,40.60
2018-05-15T13:44:10.808Z,38.50
2018-05-15T13:46:38.333Z,38.30
2018-05-15T13:49:05.862Z,38.20
2018-05-15T13:51:33.436Z,39.60
2018-05-15T13:54:00.970Z,40.80
2018-05-15T13:56:28.499Z,41.30
2018-05-15T13:58:56.937Z,40.60
2018-05-15T14:01:24.474Z,40.60
2018-05-15T14:03:52.009Z,40.50
2018-05-15T14:06:20.775Z,41.70
2018-05-15T14:08:48.427Z,41.00
2018-05-15T14:11:16.021Z,41.20
2018-05-15T14:13:43.596Z,40.30
2018-05-15T14:16:11.123Z,40.60
2018-05-15T14:18:39.486Z,41.10
2018-05-15T14:21:07.114Z,41.10
2018-05-15T14:23:34.652Z,41.90
2018-05-15T14:26:02.953Z,41.60
2018-05-15T14:28:30.533Z,41.60
2018-05-15T14:30:58.072Z,41.40
2018-05-15T14:33:26.410Z,41.60
2018-05-15T14:35:53.997Z,41.50
2018-05-15T14:38:21.524Z,39.40
2018-05-15T14:40:50.930Z,38.90
2018-05-15T14:43:24.446Z,40.40
2018-05-15T14:45:52.744Z,39.30
2018-05-15T14:48:20.352Z,39.30
2018-05-15T14:54:07.164Z,39.40
2018-05-15T14:56:35.506Z,39.90
2018-05-15T14:59:03.042Z,39.80
2018-05-15T15:01:30.675Z,40.20
2018-05-15T15:03:58.172Z,39.40
2018-05-15T15:06:26.580Z,40.80
2018-05-15T15:08:54.111Z,40.80
2018-05-15T15:11:21.692Z,42.00
2018-05-15T15:13:50.941Z,41.00
2018-05-15T15:16:18.485Z,41.00
2018-05-15T15:18:46.841Z,40.20
2018-05-15T15:21:14.380Z,40.20
2018-05-15T15:23:42.028Z,40.40
2018-05-15T15:26:09.581Z,41.10
2018-05-15T15:28:37.898Z,39.50
2018-05-15T15:31:05.460Z,39.50
2018-05-15T15:33:33.045Z,40.00
2018-05-15T15:36:00.612Z,40.50
2018-05-15T15:38:28.179Z,40.20
2018-05-15T15:40:55.765Z,40.90
2018-05-15T15:43:23.428Z,40.90
2018-05-15T15:45:51.995Z,41.30
2018-05-15T15:48:21.288Z,40.90
2018-05-15T15:50:49.672Z,41.80
2018-05-15T15:53:17.304Z,41.80
2018-05-15T15:55:44.961Z,39.40
2018-05-15T15:58:12.441Z,38.80
2018-05-15T16:00:39.968Z,40.20
2018-05-15T16:03:07.596Z,40.40
2018-05-15T16:05:35.125Z,41.30
2018-05-15T16:08:03.426Z,41.70
2018-05-15T16:10:31.000Z,41.70
2018-05-15T16:12:58.541Z,42.20
2018-05-15T16:15:26.158Z,42.40
2018-05-15T16:17:53.735Z,42.30
2018-05-15T16:20:21.323Z,42.90
2018-05-15T16:22:48.863Z,43.00
2018-05-15T16:25:16.449Z,43.30
2018-05-15T16:27:43.997Z,43.80
2018-05-15T16:30:11.521Z,44.00
2018-05-15T16:32:39.101Z,44.10
2018-05-15T16:35:06.637Z,44.20
2018-05-15T16:37:34.220Z,44.70
2018-05-15T16:40:01.783Z,45.00
2018-05-15T16:42:29.334Z,45.20
2018-05-15T16:44:56.945Z,45.20
2018-05-15T16:47:24.558Z,45.30
2018-05-15T16:49:52.057Z,44.60
2018-05-15T16:52:19.627Z,44.60
2018-05-15T16:54:47.234Z,44.90
2018-05-15T16:57:14.770Z,45.30
2018-05-15T16:59:42.297Z,45.50
2018-05-15T17:02:09.889Z,45.50
2018-05-15T17:04:38.179Z,45.70
2018-05-15T17:07:06.475Z,45.60
2018-05-15T17:09:34.074Z,45.60
2018-05-15T17:12:01.665Z,45.60
2018-05-15T17:14:29.232Z,45.40
2018-05-15T17:16:56.815Z,45.50
2018-05-15T17:19:24.455Z,45.60
2018-05-15T17:21:51.992Z,45.70
2018-05-15T17:24:20.356Z,46.90
2018-05-15T17:26:47.900Z,46.90
2018-05-15T17:29:15.425Z,47.30
2018-05-15T17:31:43.795Z,48.00
2018-05-15T17:34:11.331Z,48.00
2018-05-15T17:36:38.861Z,48.10
2018-05-15T17:39:06.463Z,48.90
2018-05-15T17:41:33.997Z,48.60
2018-05-15T17:44:01.520Z,48.90
2018-05-15T17:46:29.180Z,49.30
2018-05-15T17:48:56.712Z,49.30
2018-05-15T17:51:25.008Z,49.10
2018-05-15T17:53:53.444Z,49.00
2018-05-15T17:56:20.997Z,48.80
2018-05-15T17:58:48.529Z,49.10
2018-05-15T18:01:16.872Z,50.00
2018-05-15T18:03:44.408Z,50.00
2018-05-15T18:06:11.945Z,50.40
2018-05-15T18:08:40.313Z,50.80
2018-05-15T18:11:07.849Z,50.80
2018-05-15T18:13:35.525Z,51.50
2018-05-15T18:16:03.107Z,51.40
2018-05-15T18:18:30.643Z,51.90
2018-05-15T18:20:58.979Z,53.30
2018-05-15T18:23:26.544Z,53.30
2018-05-15T18:25:54.089Z,53.90
2018-05-15T18:28:22.545Z,53.40
2018-05-15T18:30:50.162Z,53.30
2018-05-15T18:33:17.763Z,53.80
2018-05-15T18:35:45.309Z,53.70
2018-05-15T18:38:12.994Z,53.50
2018-05-15T18:40:40.525Z,53.90
2018-05-15T18:43:08.841Z,53.80
2018-05-15T18:45:36.427Z,53.80
2018-05-15T18:48:04.000Z,54.00
2018-05-15T18:50:31.532Z,54.40
2018-05-15T18:52:59.962Z,54.40
2018-05-15T18:55:27.503Z,54.40
2018-05-15T18:57:55.911Z,54.40
2018-05-15T19:00:23.607Z,54.40
2018-05-15T19:02:51.265Z,54.80
2018-05-15T19:05:18.790Z,53.90
2018-05-15T19:07:46.376Z,54.00
2018-05-15T19:10:14.666Z,54.60
2018-05-15T19:12:42.972Z,54.10
2018-05-15T19:15:10.553Z,54.10
2018-05-15T19:17:38.085Z,53.10
2018-05-15T19:20:06.396Z,53.50
2018-05-15T19:22:33.980Z,53.50
2018-05-15T19:25:01.516Z,53.20
2018-05-15T19:27:29.867Z,53.90
2018-05-15T19:29:57.460Z,53.50
2018-05-15T19:32:30.753Z,52.90
2018-05-15T19:34:58.342Z,53.00
2018-05-15T19:37:26.651Z,53.80
2018-05-15T19:39:56.862Z,53.90
2018-05-15T19:42:25.242Z,53.40
2018-05-15T19:44:53.701Z,53.20
2018-05-15T19:47:21.371Z,53.20
2018-05-15T19:49:48.970Z,53.60
2018-05-15T19:52:16.497Z,53.60
2018-05-15T19:54:44.925Z,53.80
2018-05-15T19:57:12.503Z,53.90
2018-05-15T19:59:40.041Z,54.10
2018-05-15T20:02:07.577Z,54.40
2018-05-15T20:04:35.153Z,54.40
2018-05-15T20:07:02.699Z,54.30
2018-05-15T20:09:30.261Z,54.50
2018-05-15T20:11:57.838Z,54.50
2018-05-15T20:14:25.365Z,54.80
2018-05-15T20:16:53.794Z,55.10
2018-05-15T20:19:21.377Z,55.10
2018-05-15T20:21:48.910Z,55.40
2018-05-15T20:24:16.478Z,55.90
2018-05-15T20:26:44.061Z,55.90
2018-05-15T20:29:11.680Z,56.30
2018-05-15T20:31:39.156Z,56.30
2018-05-15T20:34:06.732Z,56.50
2018-05-15T20:36:35.029Z,57.00
2018-05-15T20:39:03.320Z,57.50
2018-05-15T20:41:31.661Z,57.70
2018-05-15T20:43:59.246Z,57.70
2018-05-15T20:46:26.782Z,57.90
2018-05-15T20:48:54.357Z,58.10
2018-05-15T20:51:21.902Z,58.50
2018-05-15T20:53:50.209Z,58.70
2018-05-15T20:56:17.777Z,58.70
2018-05-15T20:58:45.312Z,59.00
2018-05-15T21:01:12.849Z,59.10
2018-05-15T21:03:40.432Z,59.50
2018-05-15T21:06:07.970Z,59.70
2018-05-15T21:08:35.511Z,59.80
2018-05-15T21:11:03.857Z,60.20
2018-05-15T21:13:31.381Z,60.20
2018-05-15T21:15:58.904Z,60.70
2018-05-15T21:18:26.481Z,61.00
2018-05-15T21:20:54.041Z,61.20
2018-05-15T21:23:21.581Z,61.20
2018-05-15T21:25:49.153Z,60.80
2018-05-15T21:28:16.687Z,61.10
2018-05-15T21:30:45.004Z,60.90
2018-05-15T21:33:12.576Z,60.90
2018-05-15T21:35:40.111Z,61.10
2018-05-15T21:38:07.633Z,61.20
2018-05-15T21:40:35.228Z,61.10
2018-05-15T21:43:02.750Z,61.30
2018-05-15T21:45:30.309Z,61.60
2018-05-15T21:47:58.640Z,62.10
2018-05-15T21:50:26.190Z,61.90
2018-05-15T21:52:53.721Z,62.20
2018-05-15T21:55:21.338Z,62.50
2018-05-15T21:57:48.879Z,62.70
2018-05-15T22:00:17.185Z,63.40
2018-05-15T22:02:44.756Z,63.40
2018-05-15T22:05:12.289Z,63.80
2018-05-15T22:07:39.841Z,64.10
2018-05-15T22:10:07.415Z,64.30
2018-05-15T22:12:46.649Z,64.50
2018-05-15T22:15:26.028Z,64.70
2018-05-15T22:18:06.266Z,65.30
2018-05-15T22:20:45.828Z,65.30
2018-05-15T22:23:12.876Z,65.70
2018-05-15T22:25:40.414Z,66.00
2018-05-15T22:28:08.001Z,66.30
2018-05-15T22:30:35.523Z,66.50
2018-05-15T22:33:03.153Z,66.80
2018-05-15T22:35:30.721Z,67.10
2018-05-15T22:37:58.259Z,67.50
2018-05-15T22:40:26.563Z,68.10
2018-05-15T22:42:54.144Z,68.00
2018-05-15T22:45:21.683Z,68.50
2018-05-15T22:47:49.979Z,68.70
2018-05-15T22:50:18.323Z,68.70
2018-05-15T22:52:45.848Z,68.60
2018-05-15T22:55:14.132Z,69.00
2018-05-15T22:57:41.705Z,68.80
2018-05-15T23:00:09.993Z,69.10
2018-05-15T23:02:38.284Z,69.40
2018-05-15T23:05:05.868Z,69.40
2018-05-15T23:07:33.408Z,69.80
2018-05-15T23:10:00.939Z,70.10
2018-05-15T23:12:28.528Z,70.40
2018-05-15T23:14:56.078Z,70.60
2018-05-15T23:17:23.913Z,71.00
2018-05-15T23:19:52.254Z,71.40
2018-05-15T23:22:31.637Z,71.40
2018-05-15T23:24:59.985Z,72.20
2018-05-15T23:27:27.508Z,71.90
2018-05-15T23:29:55.810Z,72.60
2018-05-15T23:32:24.022Z,72.60
2018-05-15T23:43:39.642Z,73.90
2018-05-15T23:46:07.172Z,74.30
2018-05-15T23:48:34.705Z,74.60
2018-05-15T23:51:03.050Z,75.10
2018-05-15T23:53:30.580Z,75.10
2018-05-15T23:55:58.879Z,75.70
2018-05-15T23:58:26.454Z,75.50
